sensor_id;sensor_type;location;lat;lon;timestamp;P1;durP1;ratioP1;P2;durP2;ratioP2
32812;SDS011;19162;48.254;11.454;2024-01-07T00:01:46;9.93;;;9.02;;
32812;SDS011;19162;48.254;11.454;2024-01-07T00:04:46;9.85;;;9.02;;
32812;SDS011;19162;48.254;11.454;2024-01-07T00:07:46;9.02;;;8.38;;
32812;SDS011;19162;48.254;11.454;2024-01-07T00:10:48;9.50;;;8.70;;
32812;SDS011;19162;48.254;11.454;2024-01-07T00:13:48;9.88;;;8.98;;
32812;SDS011;19162;48.254;11.454;2024-01-07T00:16:48;8.98;;;8.38;;
32812;SDS011;19162;48.254;11.454;2024-01-07T00:19:48;8.35;;;7.75;;
32812;SDS011;19162;48.254;11.454;2024-01-07T00:22:48;8.75;;;8.05;;
32812;SDS011;19162;48.254;11.454;2024-01-07T00:25:49;8.13;;;7.43;;
32812;SDS011;19162;48.254;11.454;2024-01-07T00:28:49;9.27;;;8.45;;
32812;SDS011;19162;48.254;11.454;2024-01-07T00:31:49;8.43;;;7.83;;
32812;SDS011;19162;48.254;11.454;2024-01-07T00:34:49;9.07;;;8.37;;
32812;SDS011;19162;48.254;11.454;2024-01-07T00:37:49;9.20;;;8.50;;
32812;SDS011;19162;48.254;11.454;2024-01-07T00:40:49;8.53;;;7.93;;
32812;SDS011;19162;48.254;11.454;2024-01-07T00:43:50;8.50;;;8.00;;
32812;SDS011;19162;48.254;11.454;2024-01-07T00:46:50;8.45;;;7.85;;
32812;SDS011;19162;48.254;11.454;2024-01-07T00:49:50;8.73;;;7.97;;
32812;SDS011;19162;48.254;11.454;2024-01-07T00:52:50;8.32;;;7.72;;
32812;SDS011;19162;48.254;11.454;2024-01-07T00:55:52;9.15;;;8.45;;
32812;SDS011;19162;48.254;11.454;2024-01-07T00:58:52;9.02;;;8.43;;
32812;SDS011;19162;48.254;11.454;2024-01-07T01:01:53;9.10;;;8.50;;
32812;SDS011;19162;48.254;11.454;2024-01-07T01:04:53;9.55;;;8.85;;
32812;SDS011;19162;48.254;11.454;2024-01-07T01:07:53;9.57;;;8.88;;
32812;SDS011;19162;48.254;11.454;2024-01-07T01:10:53;9.05;;;8.35;;
32812;SDS011;19162;48.254;11.454;2024-01-07T01:13:53;8.95;;;8.35;;
32812;SDS011;19162;48.254;11.454;2024-01-07T01:16:53;9.77;;;9.02;;
32812;SDS011;19162;48.254;11.454;2024-01-07T01:19:54;8.45;;;7.85;;
32812;SDS011;19162;48.254;11.454;2024-01-07T01:22:54;8.48;;;7.90;;
32812;SDS011;19162;48.254;11.454;2024-01-07T01:25:54;8.20;;;7.60;;
32812;SDS011;19162;48.254;11.454;2024-01-07T01:28:54;8.30;;;7.70;;
32812;SDS011;19162;48.254;11.454;2024-01-07T01:31:54;8.20;;;7.70;;
32812;SDS011;19162;48.254;11.454;2024-01-07T01:34:54;8.60;;;8.00;;
32812;SDS011;19162;48.254;11.454;2024-01-07T01:37:54;8.90;;;8.23;;
32812;SDS011;19162;48.254;11.454;2024-01-07T01:40:55;9.27;;;8.68;;
32812;SDS011;19162;48.254;11.454;2024-01-07T01:43:58;9.37;;;8.67;;
32812;SDS011;19162;48.254;11.454;2024-01-07T01:46:59;8.77;;;8.07;;
32812;SDS011;19162;48.254;11.454;2024-01-07T01:50:00;9.55;;;8.85;;
32812;SDS011;19162;48.254;11.454;2024-01-07T01:53:00;9.25;;;8.65;;
32812;SDS011;19162;48.254;11.454;2024-01-07T01:56:01;8.93;;;8.25;;
32812;SDS011;19162;48.254;11.454;2024-01-07T01:59:04;9.48;;;8.77;;
32812;SDS011;19162;48.254;11.454;2024-01-07T02:02:04;9.25;;;8.65;;
32812;SDS011;19162;48.254;11.454;2024-01-07T02:05:05;8.88;;;8.27;;
32812;SDS011;19162;48.254;11.454;2024-01-07T02:08:05;9.95;;;9.07;;
32812;SDS011;19162;48.254;11.454;2024-01-07T02:11:18;9.27;;;8.68;;
32812;SDS011;19162;48.254;11.454;2024-01-07T02:17:19;9.13;;;8.52;;
32812;SDS011;19162;48.254;11.454;2024-01-07T02:20:19;9.23;;;8.55;;
32812;SDS011;19162;48.254;11.454;2024-01-07T02:23:19;8.30;;;7.80;;
32812;SDS011;19162;48.254;11.454;2024-01-07T02:26:20;9.80;;;9.10;;
32812;SDS011;19162;48.254;11.454;2024-01-07T02:29:20;9.00;;;8.40;;
32812;SDS011;19162;48.254;11.454;2024-01-07T02:32:20;9.33;;;8.57;;
32812;SDS011;19162;48.254;11.454;2024-01-07T02:35:20;9.27;;;8.68;;
32812;SDS011;19162;48.254;11.454;2024-01-07T02:38:21;10.48;;;9.80;;
32812;SDS011;19162;48.254;11.454;2024-01-07T02:41:21;8.93;;;8.32;;
32812;SDS011;19162;48.254;11.454;2024-01-07T02:44:25;9.15;;;8.55;;
32812;SDS011;19162;48.254;11.454;2024-01-07T02:47:25;9.63;;;9.03;;
32812;SDS011;19162;48.254;11.454;2024-01-07T02:50:26;9.25;;;8.30;;
32812;SDS011;19162;48.254;11.454;2024-01-07T02:53:26;10.63;;;9.83;;
32812;SDS011;19162;48.254;11.454;2024-01-07T02:56:26;10.10;;;9.40;;
32812;SDS011;19162;48.254;11.454;2024-01-07T02:59:26;9.25;;;8.65;;
32812;SDS011;19162;48.254;11.454;2024-01-07T03:02:27;9.55;;;8.85;;
32812;SDS011;19162;48.254;11.454;2024-01-07T03:05:27;9.43;;;8.73;;
32812;SDS011;19162;48.254;11.454;2024-01-07T03:08:29;9.97;;;9.27;;
32812;SDS011;19162;48.254;11.454;2024-01-07T03:11:29;10.10;;;9.40;;
32812;SDS011;19162;48.254;11.454;2024-01-07T03:14:29;9.50;;;8.90;;
32812;SDS011;19162;48.254;11.454;2024-01-07T03:17:29;9.43;;;8.82;;
32812;SDS011;19162;48.254;11.454;2024-01-07T03:20:30;9.05;;;8.45;;
32812;SDS011;19162;48.254;11.454;2024-01-07T03:23:31;9.48;;;8.85;;
32812;SDS011;19162;48.254;11.454;2024-01-07T03:26:31;9.77;;;9.07;;
32812;SDS011;19162;48.254;11.454;2024-01-07T03:29:34;10.27;;;9.43;;
32812;SDS011;19162;48.254;11.454;2024-01-07T03:32:36;9.50;;;8.85;;
32812;SDS011;19162;48.254;11.454;2024-01-07T03:35:36;10.10;;;9.40;;
32812;SDS011;19162;48.254;11.454;2024-01-07T03:38:36;9.47;;;8.83;;
32812;SDS011;19162;48.254;11.454;2024-01-07T03:41:37;9.68;;;9.00;;
32812;SDS011;19162;48.254;11.454;2024-01-07T03:44:37;9.38;;;8.68;;
32812;SDS011;19162;48.254;11.454;2024-01-07T03:47:38;9.30;;;8.70;;
32812;SDS011;19162;48.254;11.454;2024-01-07T03:50:39;8.57;;;7.93;;
32812;SDS011;19162;48.254;11.454;2024-01-07T03:53:39;8.10;;;7.50;;
32812;SDS011;19162;48.254;11.454;2024-01-07T03:56:40;7.20;;;6.70;;
32812;SDS011;19162;48.254;11.454;2024-01-07T03:59:40;7.50;;;7.00;;
32812;SDS011;19162;48.254;11.454;2024-01-07T04:02:40;7.47;;;6.97;;
32812;SDS011;19162;48.254;11.454;2024-01-07T04:05:40;7.20;;;6.70;;
32812;SDS011;19162;48.254;11.454;2024-01-07T04:08:40;7.85;;;7.25;;
32812;SDS011;19162;48.254;11.454;2024-01-07T04:11:41;7.47;;;6.88;;
32812;SDS011;19162;48.254;11.454;2024-01-07T04:14:42;7.00;;;6.50;;
32812;SDS011;19162;48.254;11.454;2024-01-07T04:17:43;6.90;;;6.40;;
32812;SDS011;19162;48.254;11.454;2024-01-07T04:20:43;7.22;;;6.72;;
32812;SDS011;19162;48.254;11.454;2024-01-07T04:23:43;7.15;;;6.65;;
32812;SDS011;19162;48.254;11.454;2024-01-07T04:26:43;7.70;;;7.10;;
32812;SDS011;19162;48.254;11.454;2024-01-07T04:29:44;7.63;;;6.97;;
32812;SDS011;19162;48.254;11.454;2024-01-07T04:32:44;6.97;;;6.57;;
32812;SDS011;19162;48.254;11.454;2024-01-07T04:35:44;7.40;;;6.90;;
32812;SDS011;19162;48.254;11.454;2024-01-07T04:38:44;6.85;;;6.35;;
32812;SDS011;19162;48.254;11.454;2024-01-07T04:41:44;6.63;;;6.13;;
32812;SDS011;19162;48.254;11.454;2024-01-07T04:44:44;6.72;;;6.25;;
32812;SDS011;19162;48.254;11.454;2024-01-07T04:47:45;7.13;;;6.63;;
32812;SDS011;19162;48.254;11.454;2024-01-07T04:50:45;7.25;;;6.78;;
32812;SDS011;19162;48.254;11.454;2024-01-07T04:53:45;7.30;;;6.80;;
32812;SDS011;19162;48.254;11.454;2024-01-07T04:56:46;7.25;;;6.75;;
32812;SDS011;19162;48.254;11.454;2024-01-07T04:59:46;7.15;;;6.65;;
32812;SDS011;19162;48.254;11.454;2024-01-07T05:02:47;7.75;;;7.15;;
32812;SDS011;19162;48.254;11.454;2024-01-07T05:05:47;7.43;;;6.90;;
32812;SDS011;19162;48.254;11.454;2024-01-07T05:08:47;7.85;;;7.25;;
32812;SDS011;19162;48.254;11.454;2024-01-07T05:11:47;8.40;;;7.80;;
32812;SDS011;19162;48.254;11.454;2024-01-07T05:14:47;7.53;;;6.93;;
32812;SDS011;19162;48.254;11.454;2024-01-07T05:17:48;7.87;;;7.33;;
32812;SDS011;19162;48.254;11.454;2024-01-07T05:20:48;7.40;;;6.90;;
32812;SDS011;19162;48.254;11.454;2024-01-07T05:23:48;7.45;;;6.90;;
32812;SDS011;19162;48.254;11.454;2024-01-07T05:26:48;7.35;;;6.82;;
32812;SDS011;19162;48.254;11.454;2024-01-07T05:29:49;6.80;;;6.40;;
32812;SDS011;19162;48.254;11.454;2024-01-07T05:32:49;7.20;;;6.72;;
32812;SDS011;19162;48.254;11.454;2024-01-07T05:35:49;7.03;;;6.53;;
32812;SDS011;19162;48.254;11.454;2024-01-07T05:38:49;7.38;;;6.78;;
32812;SDS011;19162;48.254;11.454;2024-01-07T05:41:50;7.00;;;6.50;;
32812;SDS011;19162;48.254;11.454;2024-01-07T05:44:50;6.50;;;6.10;;
32812;SDS011;19162;48.254;11.454;2024-01-07T05:47:50;7.05;;;6.40;;
32812;SDS011;19162;48.254;11.454;2024-01-07T05:50:50;7.18;;;6.68;;
32812;SDS011;19162;48.254;11.454;2024-01-07T05:53:51;7.63;;;7.03;;
32812;SDS011;19162;48.254;11.454;2024-01-07T05:56:51;7.05;;;6.55;;
32812;SDS011;19162;48.254;11.454;2024-01-07T05:59:52;6.70;;;6.22;;
32812;SDS011;19162;48.254;11.454;2024-01-07T06:02:52;5.90;;;5.50;;
32812;SDS011;19162;48.254;11.454;2024-01-07T06:05:52;6.82;;;6.22;;
32812;SDS011;19162;48.254;11.454;2024-01-07T06:08:52;6.50;;;6.07;;
32812;SDS011;19162;48.254;11.454;2024-01-07T06:11:52;6.63;;;6.18;;
32812;SDS011;19162;48.254;11.454;2024-01-07T06:14:53;6.90;;;6.40;;
32812;SDS011;19162;48.254;11.454;2024-01-07T06:17:53;6.35;;;5.95;;
32812;SDS011;19162;48.254;11.454;2024-01-07T06:20:53;6.40;;;5.97;;
32812;SDS011;19162;48.254;11.454;2024-01-07T06:23:54;7.10;;;6.60;;
32812;SDS011;19162;48.254;11.454;2024-01-07T06:26:54;6.93;;;6.43;;
32812;SDS011;19162;48.254;11.454;2024-01-07T06:29:54;6.70;;;6.30;;
32812;SDS011;19162;48.254;11.454;2024-01-07T06:32:55;6.85;;;6.35;;
32812;SDS011;19162;48.254;11.454;2024-01-07T06:35:55;5.68;;;5.25;;
32812;SDS011;19162;48.254;11.454;2024-01-07T06:38:55;6.25;;;5.85;;
32812;SDS011;19162;48.254;11.454;2024-01-07T06:41:55;6.53;;;6.13;;
32812;SDS011;19162;48.254;11.454;2024-01-07T06:44:56;6.63;;;6.13;;
32812;SDS011;19162;48.254;11.454;2024-01-07T06:47:56;6.20;;;5.80;;
32812;SDS011;19162;48.254;11.454;2024-01-07T06:50:57;6.82;;;6.32;;
32812;SDS011;19162;48.254;11.454;2024-01-07T06:53:57;7.32;;;6.80;;
32812;SDS011;19162;48.254;11.454;2024-01-07T06:56:57;6.95;;;6.35;;
32812;SDS011;19162;48.254;11.454;2024-01-07T06:59:57;6.47;;;5.97;;
32812;SDS011;19162;48.254;11.454;2024-01-07T07:02:57;7.18;;;6.68;;
32812;SDS011;19162;48.254;11.454;2024-01-07T07:05:58;7.13;;;6.63;;
32812;SDS011;19162;48.254;11.454;2024-01-07T07:08:58;6.88;;;6.38;;
32812;SDS011;19162;48.254;11.454;2024-01-07T07:11:58;6.60;;;6.10;;
32812;SDS011;19162;48.254;11.454;2024-01-07T07:14:58;7.43;;;6.90;;
32812;SDS011;19162;48.254;11.454;2024-01-07T07:17:58;7.03;;;6.47;;
32812;SDS011;19162;48.254;11.454;2024-01-07T07:20:58;7.15;;;6.65;;
32812;SDS011;19162;48.254;11.454;2024-01-07T07:23:59;6.70;;;6.28;;
32812;SDS011;19162;48.254;11.454;2024-01-07T07:26:59;7.00;;;6.50;;
32812;SDS011;19162;48.254;11.454;2024-01-07T07:29:59;7.15;;;6.65;;
32812;SDS011;19162;48.254;11.454;2024-01-07T07:32:59;6.82;;;6.43;;
32812;SDS011;19162;48.254;11.454;2024-01-07T07:35:59;7.43;;;6.93;;
32812;SDS011;19162;48.254;11.454;2024-01-07T07:38:59;7.20;;;6.70;;
32812;SDS011;19162;48.254;11.454;2024-01-07T07:42:00;8.13;;;7.43;;
32812;SDS011;19162;48.254;11.454;2024-01-07T07:45:00;7.67;;;7.17;;
32812;SDS011;19162;48.254;11.454;2024-01-07T07:48:02;7.35;;;6.75;;
32812;SDS011;19162;48.254;11.454;2024-01-07T07:51:02;7.93;;;7.33;;
32812;SDS011;19162;48.254;11.454;2024-01-07T07:54:02;8.37;;;7.77;;
32812;SDS011;19162;48.254;11.454;2024-01-07T07:57:03;8.23;;;7.63;;
32812;SDS011;19162;48.254;11.454;2024-01-07T08:00:04;8.43;;;7.82;;
32812;SDS011;19162;48.254;11.454;2024-01-07T08:03:05;8.68;;;7.97;;
32812;SDS011;19162;48.254;11.454;2024-01-07T08:06:05;8.38;;;7.75;;
32812;SDS011;19162;48.254;11.454;2024-01-07T08:09:05;9.37;;;8.67;;
32812;SDS011;19162;48.254;11.454;2024-01-07T08:12:06;8.50;;;7.90;;
32812;SDS011;19162;48.254;11.454;2024-01-07T08:15:06;9.30;;;8.50;;
32812;SDS011;19162;48.254;11.454;2024-01-07T08:18:07;9.45;;;8.65;;
32812;SDS011;19162;48.254;11.454;2024-01-07T08:21:07;8.95;;;8.23;;
32812;SDS011;19162;48.254;11.454;2024-01-07T08:24:07;10.10;;;9.30;;
32812;SDS011;19162;48.254;11.454;2024-01-07T08:27:08;10.27;;;9.47;;
32812;SDS011;19162;48.254;11.454;2024-01-07T08:30:08;10.07;;;9.15;;
32812;SDS011;19162;48.254;11.454;2024-01-07T08:33:08;11.07;;;10.18;;
32812;SDS011;19162;48.254;11.454;2024-01-07T08:36:08;11.57;;;10.68;;
32812;SDS011;19162;48.254;11.454;2024-01-07T08:39:08;12.23;;;11.23;;
32812;SDS011;19162;48.254;11.454;2024-01-07T08:42:09;11.40;;;10.50;;
32812;SDS011;19162;48.254;11.454;2024-01-07T08:45:09;12.20;;;11.10;;
32812;SDS011;19162;48.254;11.454;2024-01-07T08:48:09;11.45;;;10.60;;
32812;SDS011;19162;48.254;11.454;2024-01-07T08:51:10;12.43;;;11.32;;
32812;SDS011;19162;48.254;11.454;2024-01-07T08:54:10;11.68;;;10.77;;
32812;SDS011;19162;48.254;11.454;2024-01-07T08:57:10;12.00;;;11.00;;
32812;SDS011;19162;48.254;11.454;2024-01-07T09:00:11;12.77;;;11.70;;
32812;SDS011;19162;48.254;11.454;2024-01-07T09:03:11;14.18;;;12.90;;
32812;SDS011;19162;48.254;11.454;2024-01-07T09:06:11;12.60;;;11.38;;
32812;SDS011;19162;48.254;11.454;2024-01-07T09:09:12;11.73;;;10.83;;
32812;SDS011;19162;48.254;11.454;2024-01-07T09:12:12;11.98;;;11.07;;
32812;SDS011;19162;48.254;11.454;2024-01-07T09:15:13;11.70;;;10.77;;
32812;SDS011;19162;48.254;11.454;2024-01-07T09:18:13;12.07;;;11.13;;
32812;SDS011;19162;48.254;11.454;2024-01-07T09:21:13;12.73;;;11.73;;
32812;SDS011;19162;48.254;11.454;2024-01-07T09:24:14;11.95;;;10.95;;
32812;SDS011;19162;48.254;11.454;2024-01-07T09:27:14;12.05;;;11.05;;
32812;SDS011;19162;48.254;11.454;2024-01-07T09:30:14;12.82;;;11.82;;
32812;SDS011;19162;48.254;11.454;2024-01-07T09:33:15;12.02;;;11.15;;
32812;SDS011;19162;48.254;11.454;2024-01-07T09:36:15;12.07;;;11.07;;
32812;SDS011;19162;48.254;11.454;2024-01-07T09:39:16;12.18;;;11.18;;
32812;SDS011;19162;48.254;11.454;2024-01-07T09:42:16;13.27;;;12.18;;
32812;SDS011;19162;48.254;11.454;2024-01-07T09:45:17;12.60;;;11.40;;
32812;SDS011;19162;48.254;11.454;2024-01-07T09:48:18;12.30;;;11.30;;
32812;SDS011;19162;48.254;11.454;2024-01-07T09:51:19;11.73;;;10.82;;
32812;SDS011;19162;48.254;11.454;2024-01-07T09:54:21;12.50;;;11.45;;
32812;SDS011;19162;48.254;11.454;2024-01-07T09:57:22;13.32;;;12.23;;
32812;SDS011;19162;48.254;11.454;2024-01-07T10:00:22;13.50;;;12.40;;
32812;SDS011;19162;48.254;11.454;2024-01-07T10:03:24;13.68;;;12.48;;
32812;SDS011;19162;48.254;11.454;2024-01-07T10:06:25;14.15;;;12.90;;
32812;SDS011;19162;48.254;11.454;2024-01-07T10:09:29;13.55;;;12.35;;
32812;SDS011;19162;48.254;11.454;2024-01-07T10:12:29;12.50;;;11.50;;
32812;SDS011;19162;48.254;11.454;2024-01-07T10:15:31;13.38;;;12.38;;
32812;SDS011;19162;48.254;11.454;2024-01-07T10:18:31;12.13;;;11.23;;
32812;SDS011;19162;48.254;11.454;2024-01-07T10:21:34;12.88;;;11.88;;
32812;SDS011;19162;48.254;11.454;2024-01-07T10:24:35;11.95;;;10.95;;
32812;SDS011;19162;48.254;11.454;2024-01-07T10:27:39;12.88;;;11.88;;
32812;SDS011;19162;48.254;11.454;2024-01-07T10:30:40;13.18;;;12.07;;
32812;SDS011;19162;48.254;11.454;2024-01-07T10:33:40;12.45;;;11.48;;
32812;SDS011;19162;48.254;11.454;2024-01-07T10:36:40;11.65;;;10.77;;
32812;SDS011;19162;48.254;11.454;2024-01-07T10:39:41;11.52;;;10.48;;
32812;SDS011;19162;48.254;11.454;2024-01-07T10:42:42;11.68;;;10.77;;
32812;SDS011;19162;48.254;11.454;2024-01-07T10:45:44;12.10;;;11.15;;
32812;SDS011;19162;48.254;11.454;2024-01-07T10:48:49;12.40;;;11.40;;
32812;SDS011;19162;48.254;11.454;2024-01-07T10:52:11;12.23;;;11.23;;
32812;SDS011;19162;48.254;11.454;2024-01-07T10:55:11;12.68;;;11.68;;
32812;SDS011;19162;48.254;11.454;2024-01-07T10:58:14;12.88;;;11.77;;
32812;SDS011;19162;48.254;11.454;2024-01-07T11:01:15;13.00;;;11.90;;
32812;SDS011;19162;48.254;11.454;2024-01-07T11:04:23;11.75;;;10.85;;
32812;SDS011;19162;48.254;11.454;2024-01-07T11:07:31;11.10;;;10.20;;
32812;SDS011;19162;48.254;11.454;2024-01-07T11:10:39;12.40;;;11.20;;
32812;SDS011;19162;48.254;11.454;2024-01-07T11:13:41;12.30;;;11.40;;
32812;SDS011;19162;48.254;11.454;2024-01-07T11:16:42;11.90;;;11.00;;
32812;SDS011;19162;48.254;11.454;2024-01-07T11:19:50;10.27;;;9.45;;
32812;SDS011;19162;48.254;11.454;2024-01-07T11:22:51;8.60;;;8.00;;
32812;SDS011;19162;48.254;11.454;2024-01-07T11:25:51;8.95;;;8.25;;
32812;SDS011;19162;48.254;11.454;2024-01-07T11:28:55;8.63;;;8.02;;
32812;SDS011;19162;48.254;11.454;2024-01-07T11:31:58;9.02;;;8.32;;
32812;SDS011;19162;48.254;11.454;2024-01-07T11:34:58;8.32;;;7.72;;
32812;SDS011;19162;48.254;11.454;2024-01-07T11:37:59;8.20;;;7.60;;
32812;SDS011;19162;48.254;11.454;2024-01-07T11:40:59;8.13;;;7.53;;
32812;SDS011;19162;48.254;11.454;2024-01-07T11:44:00;7.68;;;7.07;;
32812;SDS011;19162;48.254;11.454;2024-01-07T11:47:00;7.82;;;7.22;;
32812;SDS011;19162;48.254;11.454;2024-01-07T11:50:01;7.63;;;7.03;;
32812;SDS011;19162;48.254;11.454;2024-01-07T11:53:01;9.17;;;8.47;;
32812;SDS011;19162;48.254;11.454;2024-01-07T11:56:01;8.50;;;7.70;;
32812;SDS011;19162;48.254;11.454;2024-01-07T11:59:01;8.77;;;7.97;;
32812;SDS011;19162;48.254;11.454;2024-01-07T12:02:02;7.80;;;7.10;;
32812;SDS011;19162;48.254;11.454;2024-01-07T12:05:04;9.15;;;8.35;;
32812;SDS011;19162;48.254;11.454;2024-01-07T12:08:04;8.27;;;7.67;;
32812;SDS011;19162;48.254;11.454;2024-01-07T12:11:06;8.50;;;7.80;;
32812;SDS011;19162;48.254;11.454;2024-01-07T12:14:06;8.70;;;8.00;;
32812;SDS011;19162;48.254;11.454;2024-01-07T12:17:08;8.32;;;7.68;;
32812;SDS011;19162;48.254;11.454;2024-01-07T12:20:09;8.82;;;8.13;;
32812;SDS011;19162;48.254;11.454;2024-01-07T12:23:09;9.27;;;7.40;;
32812;SDS011;19162;48.254;11.454;2024-01-07T12:26:10;9.05;;;8.25;;
32812;SDS011;19162;48.254;11.454;2024-01-07T12:29:11;9.35;;;8.60;;
32812;SDS011;19162;48.254;11.454;2024-01-07T12:32:12;9.02;;;8.35;;
32812;SDS011;19162;48.254;11.454;2024-01-07T12:35:12;8.50;;;7.72;;
32812;SDS011;19162;48.254;11.454;2024-01-07T12:38:12;7.60;;;7.00;;
32812;SDS011;19162;48.254;11.454;2024-01-07T12:41:12;7.90;;;7.20;;
32812;SDS011;19162;48.254;11.454;2024-01-07T12:44:13;6.82;;;6.32;;
32812;SDS011;19162;48.254;11.454;2024-01-07T12:47:13;7.70;;;7.00;;
32812;SDS011;19162;48.254;11.454;2024-01-07T12:50:13;7.43;;;6.82;;
32812;SDS011;19162;48.254;11.454;2024-01-07T12:53:13;7.83;;;7.23;;
32812;SDS011;19162;48.254;11.454;2024-01-07T12:56:13;6.97;;;6.38;;
32812;SDS011;19162;48.254;11.454;2024-01-07T12:59:14;7.15;;;6.57;;
32812;SDS011;19162;48.254;11.454;2024-01-07T13:02:14;7.80;;;7.20;;
32812;SDS011;19162;48.254;11.454;2024-01-07T13:05:14;6.50;;;6.00;;
32812;SDS011;19162;48.254;11.454;2024-01-07T13:08:14;6.80;;;6.23;;
32812;SDS011;19162;48.254;11.454;2024-01-07T13:11:14;6.75;;;6.20;;
32812;SDS011;19162;48.254;11.454;2024-01-07T13:14:16;7.70;;;7.07;;
32812;SDS011;19162;48.254;11.454;2024-01-07T13:17:17;6.53;;;6.03;;
32812;SDS011;19162;48.254;11.454;2024-01-07T13:20:17;7.28;;;6.68;;
32812;SDS011;19162;48.254;11.454;2024-01-07T13:23:19;7.00;;;6.40;;
32812;SDS011;19162;48.254;11.454;2024-01-07T13:26:20;8.20;;;7.53;;
32812;SDS011;19162;48.254;11.454;2024-01-07T13:29:20;7.18;;;6.60;;
32812;SDS011;19162;48.254;11.454;2024-01-07T13:32:20;7.65;;;7.05;;
32812;SDS011;19162;48.254;11.454;2024-01-07T13:35:21;7.32;;;6.82;;
32812;SDS011;19162;48.254;11.454;2024-01-07T13:38:21;8.05;;;7.43;;
32812;SDS011;19162;48.254;11.454;2024-01-07T13:41:21;7.35;;;6.75;;
32812;SDS011;19162;48.254;11.454;2024-01-07T13:44:21;7.35;;;6.75;;
32812;SDS011;19162;48.254;11.454;2024-01-07T13:47:22;7.03;;;6.50;;
32812;SDS011;19162;48.254;11.454;2024-01-07T13:50:22;7.35;;;6.75;;
32812;SDS011;19162;48.254;11.454;2024-01-07T13:53:22;7.47;;;6.77;;
32812;SDS011;19162;48.254;11.454;2024-01-07T13:56:22;7.37;;;6.73;;
32812;SDS011;19162;48.254;11.454;2024-01-07T13:59:22;6.97;;;6.30;;
32812;SDS011;19162;48.254;11.454;2024-01-07T14:02:23;7.03;;;6.43;;
32812;SDS011;19162;48.254;11.454;2024-01-07T14:05:23;6.03;;;5.53;;
32812;SDS011;19162;48.254;11.454;2024-01-07T14:08:23;6.47;;;5.97;;
32812;SDS011;19162;48.254;11.454;2024-01-07T14:11:24;7.05;;;6.43;;
32812;SDS011;19162;48.254;11.454;2024-01-07T14:14:24;6.97;;;6.45;;
32812;SDS011;19162;48.254;11.454;2024-01-07T14:17:24;6.93;;;6.43;;
32812;SDS011;19162;48.254;11.454;2024-01-07T14:20:25;6.60;;;6.00;;
32812;SDS011;19162;48.254;11.454;2024-01-07T14:23:25;7.53;;;6.93;;
32812;SDS011;19162;48.254;11.454;2024-01-07T14:26:25;6.88;;;6.30;;
32812;SDS011;19162;48.254;11.454;2024-01-07T14:29:25;7.40;;;6.78;;
32812;SDS011;19162;48.254;11.454;2024-01-07T14:32:25;7.72;;;7.13;;
32812;SDS011;19162;48.254;11.454;2024-01-07T14:35:26;8.27;;;7.57;;
32812;SDS011;19162;48.254;11.454;2024-01-07T14:38:29;7.93;;;7.22;;
32812;SDS011;19162;48.254;11.454;2024-01-07T14:41:29;8.27;;;7.65;;
32812;SDS011;19162;48.254;11.454;2024-01-07T14:44:29;8.20;;;7.47;;
32812;SDS011;19162;48.254;11.454;2024-01-07T14:47:30;8.27;;;7.57;;
32812;SDS011;19162;48.254;11.454;2024-01-07T14:50:30;7.35;;;6.75;;
32812;SDS011;19162;48.254;11.454;2024-01-07T14:53:30;8.47;;;7.77;;
32812;SDS011;19162;48.254;11.454;2024-01-07T14:56:31;5.28;;;4.78;;
32812;SDS011;19162;48.254;11.454;2024-01-07T14:59:31;9.18;;;8.32;;
32812;SDS011;19162;48.254;11.454;2024-01-07T15:02:31;7.47;;;6.90;;
32812;SDS011;19162;48.254;11.454;2024-01-07T15:05:31;7.27;;;6.73;;
32812;SDS011;19162;48.254;11.454;2024-01-07T15:08:32;8.27;;;7.57;;
32812;SDS011;19162;48.254;11.454;2024-01-07T15:11:32;7.85;;;7.18;;
32812;SDS011;19162;48.254;11.454;2024-01-07T15:14:32;8.18;;;7.47;;
32812;SDS011;19162;48.254;11.454;2024-01-07T15:17:33;8.35;;;7.65;;
32812;SDS011;19162;48.254;11.454;2024-01-07T15:20:33;8.13;;;7.43;;
32812;SDS011;19162;48.254;11.454;2024-01-07T15:23:33;9.03;;;8.27;;
32812;SDS011;19162;48.254;11.454;2024-01-07T15:26:33;8.32;;;7.63;;
32812;SDS011;19162;48.254;11.454;2024-01-07T15:29:35;7.38;;;6.78;;
32812;SDS011;19162;48.254;11.454;2024-01-07T15:32:35;8.27;;;7.57;;
32812;SDS011;19162;48.254;11.454;2024-01-07T15:35:36;8.80;;;8.00;;
32812;SDS011;19162;48.254;11.454;2024-01-07T15:38:36;8.60;;;7.87;;
32812;SDS011;19162;48.254;11.454;2024-01-07T15:41:36;7.93;;;7.33;;
32812;SDS011;19162;48.254;11.454;2024-01-07T15:44:37;8.10;;;7.40;;
32812;SDS011;19162;48.254;11.454;2024-01-07T15:47:38;8.52;;;7.80;;
32812;SDS011;19162;48.254;11.454;2024-01-07T15:50:39;7.15;;;6.55;;
32812;SDS011;19162;48.254;11.454;2024-01-07T15:53:39;8.18;;;7.47;;
32812;SDS011;19162;48.254;11.454;2024-01-07T15:56:39;7.25;;;6.60;;
32812;SDS011;19162;48.254;11.454;2024-01-07T15:59:42;7.57;;;6.97;;
32812;SDS011;19162;48.254;11.454;2024-01-07T16:02:42;7.55;;;6.90;;
32812;SDS011;19162;48.254;11.454;2024-01-07T16:05:44;7.85;;;7.15;;
32812;SDS011;19162;48.254;11.454;2024-01-07T16:08:44;7.45;;;6.85;;
32812;SDS011;19162;48.254;11.454;2024-01-07T16:11:44;7.90;;;7.18;;
32812;SDS011;19162;48.254;11.454;2024-01-07T16:14:45;6.82;;;6.32;;
32812;SDS011;19162;48.254;11.454;2024-01-07T16:17:47;7.20;;;6.53;;
32812;SDS011;19162;48.254;11.454;2024-01-07T16:20:47;6.68;;;6.18;;
32812;SDS011;19162;48.254;11.454;2024-01-07T16:23:48;6.97;;;6.47;;
32812;SDS011;19162;48.254;11.454;2024-01-07T16:26:50;6.90;;;6.28;;
32812;SDS011;19162;48.254;11.454;2024-01-07T16:29:51;6.95;;;6.35;;
32812;SDS011;19162;48.254;11.454;2024-01-07T16:32:51;6.63;;;6.13;;
32812;SDS011;19162;48.254;11.454;2024-01-07T16:35:51;7.35;;;6.85;;
32812;SDS011;19162;48.254;11.454;2024-01-07T16:38:52;7.05;;;6.53;;
32812;SDS011;19162;48.254;11.454;2024-01-07T16:41:52;7.77;;;7.07;;
32812;SDS011;19162;48.254;11.454;2024-01-07T16:44:55;8.20;;;7.60;;
32812;SDS011;19162;48.254;11.454;2024-01-07T16:47:55;7.97;;;7.27;;
32812;SDS011;19162;48.254;11.454;2024-01-07T16:50:56;7.75;;;7.10;;
32812;SDS011;19162;48.254;11.454;2024-01-07T16:53:56;7.93;;;7.37;;
32812;SDS011;19162;48.254;11.454;2024-01-07T16:56:56;8.90;;;8.10;;
32812;SDS011;19162;48.254;11.454;2024-01-07T16:59:58;8.73;;;8.02;;
32812;SDS011;19162;48.254;11.454;2024-01-07T17:02:58;9.30;;;8.52;;
32812;SDS011;19162;48.254;11.454;2024-01-07T17:05:58;9.07;;;8.27;;
32812;SDS011;19162;48.254;11.454;2024-01-07T17:09:00;9.93;;;9.03;;
32812;SDS011;19162;48.254;11.454;2024-01-07T17:12:00;8.68;;;7.97;;
32812;SDS011;19162;48.254;11.454;2024-01-07T17:15:02;7.93;;;7.33;;
32812;SDS011;19162;48.254;11.454;2024-01-07T17:18:03;9.25;;;8.45;;
32812;SDS011;19162;48.254;11.454;2024-01-07T17:21:03;10.05;;;9.15;;
32812;SDS011;19162;48.254;11.454;2024-01-07T17:24:03;10.10;;;9.23;;
32812;SDS011;19162;48.254;11.454;2024-01-07T17:27:03;8.88;;;8.10;;
32812;SDS011;19162;48.254;11.454;2024-01-07T17:30:04;8.38;;;7.68;;
32812;SDS011;19162;48.254;11.454;2024-01-07T17:33:04;9.32;;;8.57;;
32812;SDS011;19162;48.254;11.454;2024-01-07T17:36:08;7.82;;;7.22;;
32812;SDS011;19162;48.254;11.454;2024-01-07T17:39:08;7.43;;;6.83;;
32812;SDS011;19162;48.254;11.454;2024-01-07T17:42:09;7.63;;;7.03;;
32812;SDS011;19162;48.254;11.454;2024-01-07T17:45:10;7.63;;;7.00;;
32812;SDS011;19162;48.254;11.454;2024-01-07T17:48:12;9.02;;;8.20;;
32812;SDS011;19162;48.254;11.454;2024-01-07T17:51:17;6.57;;;6.05;;